Main page
METAR-TAF:

METAR-TAF

Airports :

Faleolo International Airport

Apia, Upolu, Samoa

latitude: 13-49S, longitude: 172-00W, elevation: 5 m

Current weather observation

The report was made 23 minutes ago, at 18:00 UTC
Wind 3 kt from variable directions
Temperature 25°C
Humidity 94%
Pressure 1010 hPa
Visibility 10 km or more
Few clouds at a height of 2900 ft
Broken clouds at a height of 30000 ft

METAR: NSFA 211800Z VRB03KT 9999 FEW029 BKN300 25/24 Q1010

Time: 07:23 (18:23 UTC)

Forecast

The report was made 1 hour and 17 minutes ago, at 17:06 UTC
Forecast valid from 21 at 18 UTC to 22 at 18 UTC
Wind 4 kt from the South/Southeast
Visibility 10 km or more
Scattered clouds at a height of 2600 ft
Probability 30% :
Temporary
from 22 at 00 UTC to 22 at 06 UTC
Visibility: 7000 m
Broken clouds at a height of 1600 ft
rain showers,

TAF: NSFA 211706Z 2118/2218 15004KT 9999 SCT026 PROB30 TEMPO 2200/2206 7000 SHRA BKN016

Weather observations and forecasts of more than 4000 airports (METAR and TAF reports).

The available stations are represented by yellow and red dots on the map.

Hover mouse over dot to see the name of the station.

Then click to see weather observations and forecasts.

To change the map : click on the green buttons with a black cross to zoom in, on the green button with a dash to zoom out, or on the green arrows for adjacent maps.


METAR-TAF: